Time;durP1;ratioP1;P1;durP2;ratioP2;P2;SDS_P1;SDS_P2;PMS_P1;PMS_P2;Temp;Humidity;BMP_temperature;BMP_pressure;BME280_temperature;BME280_humidity;BME280_pressure;Samples;Min_cycle;Max_cycle;Signal;HPM_P1;HPM_P2
2021/01/30 00:00:19;;;;;;;2.97;0.75;;;;;;;3.84;100.00;94534.38;1048435;28;20088;-74
2021/01/30 00:00:49;;;;;;;2.30;0.50;;;;;;;3.86;100.00;94527.06;1048377;28;20035;-74
2021/01/30 00:01:20;;;;;;;1.30;0.50;;;;;;;3.88;100.00;94527.59;1052581;28;20093;-74
2021/01/30 00:01:52;;;;;;;2.38;0.80;;;;;;;3.90;100.00;94529.97;1052916;28;20365;-73
2021/01/30 00:02:22;;;;;;;4.38;0.80;;;;;;;3.90;100.00;94529.97;1052436;28;20127;-73
2021/01/30 00:02:53;;;;;;;4.40;0.70;;;;;;;3.92;100.00;94527.94;1052130;28;20040;-73
2021/01/30 00:03:23;;;;;;;1.88;0.70;;;;;;;3.91;100.00;94521.91;1052465;28;20354;-73
2021/01/30 00:03:54;;;;;;;2.25;0.52;;;;;;;3.91;100.00;94529.75;1052556;28;20062;-73
2021/01/30 00:04:24;;;;;;;2.72;0.52;;;;;;;3.92;100.00;94526.09;1052838;28;20084;-73
2021/01/30 00:04:54;;;;;;;1.83;0.55;;;;;;;3.92;100.00;94527.94;1052374;28;20469;-74
2021/01/30 00:05:25;;;;;;;1.40;0.45;;;;;;;3.90;100.00;94538.63;1052262;28;20579;-73
2021/01/30 00:05:55;;;;;;;2.55;0.88;;;;;;;3.90;100.00;94529.97;1043826;28;20494;-73
2021/01/30 00:06:26;;;;;;;3.92;1.10;;;;;;;3.93;100.00;94530.31;1043464;28;20025;-74
2021/01/30 00:06:56;;;;;;;1.92;0.50;;;;;;;3.89;100.00;94537.06;1047894;28;20035;-75
2021/01/30 00:07:27;;;;;;;1.67;0.60;;;;;;;3.90;100.00;94525.53;1040622;28;20041;-72
2021/01/30 00:07:58;;;;;;;1.13;0.50;;;;;;;3.91;100.00;94521.91;1052263;28;20051;-73
2021/01/30 00:08:29;;;;;;;1.75;0.70;;;;;;;3.92;100.00;94528.72;1052212;28;20423;-73
2021/01/30 00:08:59;;;;;;;1.38;0.63;;;;;;;3.95;100.00;94530.84;1052214;28;20031;-72
2021/01/30 00:09:30;;;;;;;2.30;0.65;;;;;;;3.98;100.00;94526.94;1052437;28;20086;-73
2021/01/30 00:10:01;;;;;;;2.55;0.70;;;;;;;3.96;100.00;94535.06;1052137;28;20605;-73
2021/01/30 00:10:31;;;;;;;3.22;0.60;;;;;;;3.98;100.00;94538.22;1052444;28;20028;-74
2021/01/30 00:11:02;;;;;;;1.75;0.68;;;;;;;3.99;100.00;94533.75;1052226;28;20024;-73
2021/01/30 00:11:32;;;;;;;3.47;0.98;;;;;;;3.97;100.00;94531.38;1052126;28;20100;-73
2021/01/30 00:12:03;;;;;;;1.85;0.47;;;;;;;3.98;100.00;94530.34;1052132;28;20457;-73
2021/01/30 00:12:33;;;;;;;0.73;0.32;;;;;;;3.96;100.00;94529.81;1052238;28;20042;-73
2021/01/30 00:13:04;;;;;;;1.85;0.60;;;;;;;3.96;100.00;94529.00;1052597;28;20054;-73
2021/01/30 00:13:35;;;;;;;2.78;0.63;;;;;;;3.94;100.00;94524.03;1051709;28;20065;-73
2021/01/30 00:14:05;;;;;;;2.22;0.57;;;;;;;3.95;100.00;94533.47;1052563;28;20770;-72
2021/01/30 00:14:36;;;;;;;2.05;0.60;;;;;;;3.96;100.00;94529.81;1052512;28;20016;-73
2021/01/30 00:15:08;;;;;;;2.22;0.60;;;;;;;3.96;100.00;94534.25;1052088;28;20500;-72
2021/01/30 00:15:38;;;;;;;1.60;0.30;;;;;;;3.96;100.00;94535.06;1050835;28;20094;-73
2021/01/30 00:16:09;;;;;;;3.25;0.55;;;;;;;3.99;100.00;94539.00;1052251;28;20451;-73
2021/01/30 00:16:39;;;;;;;2.05;0.50;;;;;;;4.00;100.00;94538.75;1048296;28;20009;-73
2021/01/30 00:17:10;;;;;;;3.00;0.70;;;;;;;4.01;100.00;94537.72;1052205;28;20008;-74
2021/01/30 00:17:40;;;;;;;1.92;0.45;;;;;;;3.97;100.00;94530.59;1047846;28;20082;-73
2021/01/30 00:18:11;;;;;;;2.78;0.50;;;;;;;4.00;100.00;94530.09;1048025;28;20024;-75
2021/01/30 00:18:41;;;;;;;1.80;0.57;;;;;;;4.00;100.00;94536.13;1049918;28;20021;-74
2021/01/30 00:19:12;;;;;;;2.13;0.60;;;;;;;3.99;100.00;94539.78;1052243;28;20489;-73
2021/01/30 00:19:44;;;;;;;1.63;0.50;;;;;;;4.02;100.00;94538.50;1052038;28;20469;-73
2021/01/30 00:20:15;;;;;;;2.40;0.70;;;;;;;4.01;100.00;94539.53;1052162;28;20008;-74
2021/01/30 00:20:46;;;;;;;2.60;0.60;;;;;;;4.01;100.00;94542.16;1052162;28;20723;-72
2021/01/30 00:21:16;;;;;;;1.02;0.40;;;;;;;4.00;100.00;94536.13;1052199;28;20012;-71
2021/01/30 00:21:54;;;;;;;2.13;0.43;;;;;;;4.01;100.00;94532.47;1052466;28;20011;-72
2021/01/30 00:22:24;;;;;;;2.22;0.70;;;;;;;4.01;100.00;94537.72;1050464;28;20008;-72
2021/01/30 00:22:55;;;;;;;3.30;0.60;;;;;;;4.02;100.00;94536.69;1052419;28;20008;-72
2021/01/30 00:23:26;;;;;;;3.22;0.65;;;;;;;4.03;100.00;94540.91;1052651;28;20451;-71
2021/01/30 00:23:56;;;;;;;3.08;0.75;;;;;;;4.03;100.00;94535.66;1052636;28;20020;-73
2021/01/30 00:24:27;;;;;;;3.70;0.52;;;;;;;4.04;100.00;94539.06;1052188;28;20028;-69
2021/01/30 00:24:58;;;;;;;3.50;0.60;;;;;;;4.04;100.00;94531.22;1052353;28;20016;-69
2021/01/30 00:25:30;;;;;;;0.80;0.40;;;;;;;4.05;100.00;94538.03;1052555;28;20379;-69
2021/01/30 00:26:01;;;;;;;0.93;0.40;;;;;;;4.08;100.00;94535.72;1050181;28;20021;-72
2021/01/30 00:26:34;;;;;;;3.33;0.70;;;;;;;4.05;100.00;94538.03;1052665;28;20490;-69
2021/01/30 00:27:04;;;;;;;1.33;0.35;;;;;;;4.03;100.00;94530.41;1052203;28;20012;-68
2021/01/30 00:27:35;;;;;;;2.15;0.50;;;;;;;4.05;100.00;94538.81;1052205;28;20524;-70
2021/01/30 00:28:06;;;;;;;1.60;0.47;;;;;;;4.07;100.00;94544.63;1047994;28;20461;-69
2021/01/30 00:28:36;;;;;;;1.92;0.65;;;;;;;4.07;100.00;94536.75;1048256;28;20465;-72
2021/01/30 00:29:07;;;;;;;1.85;0.50;;;;;;;4.06;100.00;94534.38;1052277;28;20016;-70
2021/01/30 00:29:37;;;;;;;1.60;0.43;;;;;;;4.06;100.00;94537.78;1052141;28;20074;-70
2021/01/30 00:30:10;;;;;;;1.75;0.47;;;;;;;4.06;100.00;94540.41;1052269;28;20047;-70
2021/01/30 00:30:40;;;;;;;1.15;0.40;;;;;;;4.05;100.00;94538.81;1050076;28;20496;-70
2021/01/30 00:31:11;;;;;;;2.25;0.40;;;;;;;4.04;100.00;94541.69;1052562;28;20016;-70
2021/01/30 00:31:41;;;;;;;3.55;0.77;;;;;;;4.03;100.00;94540.13;1052238;28;20036;-75
2021/01/30 00:32:13;;;;;;;1.40;0.50;;;;;;;4.03;100.00;94538.28;1052878;28;20024;-74
2021/01/30 00:32:44;;;;;;;4.15;0.98;;;;;;;4.05;100.00;94541.44;1052339;28;20016;-77
2021/01/30 00:33:14;;;;;;;1.75;0.70;;;;;;;4.05;100.00;94538.81;1054943;28;20019;-76
2021/01/30 00:33:45;;;;;;;2.15;0.65;;;;;;;4.05;100.00;94544.06;1052517;28;20497;-78
2021/01/30 00:34:17;;;;;;;1.52;0.50;;;;;;;4.04;100.00;94537.25;1052278;28;20024;-76
2021/01/30 00:34:50;;;;;;;2.13;0.60;;;;;;;4.04;100.00;94534.63;1052563;28;20050;-75
2021/01/30 00:35:22;;;;;;;1.17;0.50;;;;;;;4.04;100.00;94539.06;1053765;28;20031;-75
2021/01/30 00:35:52;;;;;;;1.27;0.40;;;;;;;4.05;100.00;94525.72;1053772;28;20043;-75
2021/01/30 00:36:23;;;;;;;3.25;0.50;;;;;;;4.06;100.00;94534.38;1054341;28;20496;-74
2021/01/30 00:36:58;;;;;;;1.83;0.57;;;;;;;4.08;100.00;94529.66;1056427;28;20047;-73
2021/01/30 00:37:29;;;;;;;3.10;0.90;;;;;;;4.07;100.00;94530.72;1057103;28;20072;-75
2021/01/30 00:38:00;;;;;;;2.05;0.50;;;;;;;4.09;100.00;94532.03;1057028;28;20089;-74
2021/01/30 00:38:30;;;;;;;1.48;0.50;;;;;;;4.09;100.00;94529.41;1056341;28;20026;-76
2021/01/30 00:39:03;;;;;;;2.15;0.60;;;;;;;4.11;100.00;94531.78;1052748;28;20106;-75
2021/01/30 00:39:34;;;;;;;1.35;0.60;;;;;;;4.13;100.00;94531.53;1052899;28;20035;-75
2021/01/30 00:40:08;;;;;;;1.33;0.65;;;;;;;4.13;100.00;94529.72;1052317;28;20038;-75
2021/01/30 00:40:38;;;;;;;4.68;0.75;;;;;;;4.14;100.00;94533.13;1054329;28;20479;-69
2021/01/30 00:41:09;;;;;;;1.20;0.40;;;;;;;4.16;100.00;94536.31;1057048;28;20012;-72
2021/01/30 00:41:39;;;;;;;2.35;0.60;;;;;;;4.16;100.00;94525.81;1056912;28;20016;-70
2021/01/30 00:42:10;;;;;;;2.03;0.70;;;;;;;4.17;100.00;94530.03;1056331;28;20031;-70
2021/01/30 00:42:41;;;;;;;1.00;0.38;;;;;;;4.15;100.00;94537.34;1054293;28;20076;-73
2021/01/30 00:43:14;;;;;;;3.90;0.50;;;;;;;4.15;100.00;94535.53;1052528;28;20397;-72
2021/01/30 00:43:48;;;;;;;1.45;0.40;;;;;;;4.15;100.00;94538.16;1048120;28;20024;-71
2021/01/30 00:44:18;;;;;;;0.90;0.40;;;;;;;4.16;100.00;94533.69;1049134;28;20086;-71
2021/01/30 00:44:51;;;;;;;2.83;0.38;;;;;;;4.11;100.00;94532.59;1055269;28;20084;-71
2021/01/30 00:45:23;;;;;;;4.88;0.68;;;;;;;4.12;100.00;94533.38;1056601;28;20026;-71
2021/01/30 00:45:54;;;;;;;2.22;0.40;;;;;;;4.12;100.00;94536.00;1056851;28;20031;-70
2021/01/30 00:46:26;;;;;;;0.73;0.40;;;;;;;4.15;100.00;94534.72;1056372;28;20085;-71
2021/01/30 00:46:57;;;;;;;2.60;0.60;;;;;;;4.16;100.00;94536.31;1048140;28;20013;-72
2021/01/30 00:47:28;;;;;;;1.58;0.45;;;;;;;4.15;100.00;94538.16;1044055;28;20035;-71
2021/01/30 00:47:58;;;;;;;1.48;0.32;;;;;;;4.16;100.00;94529.25;1044538;28;20382;-72
2021/01/30 00:48:29;;;;;;;2.85;0.50;;;;;;;4.16;100.00;94531.06;1049555;28;20485;-70
2021/01/30 00:48:59;;;;;;;0.68;0.22;;;;;;;4.16;100.00;94536.31;1057152;28;20027;-73
2021/01/30 00:49:30;;;;;;;1.60;0.50;;;;;;;4.17;100.00;94535.28;1057731;28;20073;-71
2021/01/30 00:50:01;;;;;;;1.20;0.75;;;;;;;4.18;100.00;94539.47;1057773;28;20027;-73
2021/01/30 00:50:33;;;;;;;2.00;0.50;;;;;;;4.18;100.00;94531.63;1056469;28;20015;-71
2021/01/30 00:51:03;;;;;;;3.33;0.55;;;;;;;4.18;100.00;94534.22;1048906;28;20033;-72
2021/01/30 00:51:34;;;;;;;2.25;0.50;;;;;;;4.17;100.00;94533.44;1049067;28;20019;-71
2021/01/30 00:52:04;;;;;;;1.73;0.63;;;;;;;4.19;100.00;94535.81;1049176;28;20027;-73
2021/01/30 00:52:37;;;;;;;1.83;0.57;;;;;;;4.18;100.00;94537.66;1050165;28;20055;-73
2021/01/30 00:53:07;;;;;;;1.67;0.60;;;;;;;4.19;100.00;94541.06;1048959;28;20025;-73
2021/01/30 00:53:41;;;;;;;1.05;0.30;;;;;;;4.18;100.00;94542.09;1049088;28;20025;-73
2021/01/30 00:54:12;;;;;;;1.25;0.43;;;;;;;4.17;100.00;94535.28;1050678;28;20456;-72
2021/01/30 00:54:43;;;;;;;3.47;0.63;;;;;;;4.17;100.00;94540.53;1051485;28;20074;-72
2021/01/30 00:55:16;;;;;;;2.72;0.60;;;;;;;4.19;100.00;94538.44;1053181;28;20500;-72
2021/01/30 00:55:47;;;;;;;2.33;0.30;;;;;;;4.15;100.00;94543.41;1053215;28;20044;-73
2021/01/30 00:56:18;;;;;;;1.00;0.40;;;;;;;4.14;100.00;94548.84;1053124;28;20020;-71
2021/01/30 00:56:52;;;;;;;1.35;0.52;;;;;;;4.14;100.00;94535.75;1056431;28;20559;-72
2021/01/30 00:57:23;;;;;;;1.55;0.40;;;;;;;4.17;100.00;94535.28;1057625;28;20476;-72
2021/01/30 00:57:53;;;;;;;2.35;0.50;;;;;;;4.18;100.00;94547.34;1056374;28;20031;-73
2021/01/30 00:58:25;;;;;;;1.02;0.45;;;;;;;4.17;100.00;94545.75;1053424;28;20027;-72
2021/01/30 00:58:55;;;;;;;2.10;0.55;;;;;;;4.16;100.00;94558.09;1057508;28;20046;-73
2021/01/30 00:59:25;;;;;;;2.03;0.60;;;;;;;4.18;100.00;94549.97;1057635;28;20046;-70
2021/01/30 00:59:56;;;;;;;1.52;0.35;;;;;;;4.17;100.00;94551.81;1057727;28;20380;-71
2021/01/30 01:00:26;;;;;;;1.20;0.57;;;;;;;4.20;100.00;94555.75;1057010;28;20024;-69
2021/01/30 01:00:57;;;;;;;1.10;0.40;;;;;;;4.16;100.00;94550.22;1052457;28;20473;-69
2021/01/30 01:01:27;;;;;;;1.40;0.55;;;;;;;4.17;100.00;94554.41;1052961;28;20024;-69
2021/01/30 01:01:58;;;;;;;4.10;0.40;;;;;;;4.16;100.00;94555.47;1048740;28;20135;-70
2021/01/30 01:02:29;;;;;;;1.95;0.30;;;;;;;4.16;100.00;94555.47;1053438;28;20405;-70
2021/01/30 01:03:00;;;;;;;1.98;0.57;;;;;;;4.16;100.00;94554.66;1057417;28;20015;-71
2021/01/30 01:03:30;;;;;;;2.90;0.60;;;;;;;4.17;100.00;94554.41;1057258;28;20076;-71
2021/01/30 01:04:01;;;;;;;1.33;0.45;;;;;;;4.18;100.00;94558.63;1057700;28;20473;-72
2021/01/30 01:04:32;;;;;;;1.67;0.55;;;;;;;4.14;100.00;94559.34;1056675;28;20026;-69
2021/01/30 01:05:03;;;;;;;1.58;0.40;;;;;;;4.16;100.00;94558.09;1053460;28;20024;-72
2021/01/30 01:05:33;;;;;;;0.98;0.50;;;;;;;4.17;100.00;94556.25;1053149;28;20024;-71
2021/01/30 01:06:04;;;;;;;2.20;0.50;;;;;;;4.18;100.00;94560.47;1053419;28;20043;-71
2021/01/30 01:06:34;;;;;;;1.85;0.55;;;;;;;4.17;100.00;94566.75;1053120;28;20020;-71
2021/01/30 01:07:04;;;;;;;4.45;0.50;;;;;;;4.18;100.00;94566.50;1053183;28;20082;-71
2021/01/30 01:07:36;;;;;;;4.32;1.15;;;;;;;4.20;100.00;94571.50;1053067;28;20028;-71
2021/01/30 01:08:06;;;;;;;0.73;0.40;;;;;;;4.18;100.00;94565.69;1053201;28;20540;-71
2021/01/30 01:08:37;;;;;;;1.83;0.40;;;;;;;4.18;100.00;94573.56;1053431;28;20042;-71
2021/01/30 01:09:08;;;;;;;1.00;0.32;;;;;;;4.17;100.00;94569.38;1053551;28;20069;-71
2021/01/30 01:09:41;;;;;;;1.25;0.30;;;;;;;4.14;100.00;94583.72;1053415;28;20019;-71
2021/01/30 01:10:12;;;;;;;2.05;0.52;;;;;;;4.13;100.00;94573.50;1053235;28;20032;-71
2021/01/30 01:10:43;;;;;;;3.03;0.60;;;;;;;4.15;100.00;94576.69;1053117;28;20020;-71
2021/01/30 01:11:13;;;;;;;2.22;0.63;;;;;;;4.16;100.00;94583.50;1048931;28;20025;-71
2021/01/30 01:11:47;;;;;;;2.40;0.50;;;;;;;4.15;100.00;94584.56;1049463;28;20490;-71
2021/01/30 01:12:17;;;;;;;1.63;0.50;;;;;;;4.15;100.00;94568.81;1053144;28;20527;-71
2021/01/30 01:12:48;;;;;;;2.40;0.55;;;;;;;4.17;100.00;94585.09;1053731;28;20191;-71
2021/01/30 01:13:19;;;;;;;2.20;0.68;;;;;;;4.16;100.00;94589.56;1056561;28;20409;-72
2021/01/30 01:13:49;;;;;;;0.80;0.40;;;;;;;4.16;100.00;94586.94;1057248;28;20008;-72
2021/01/30 01:14:21;;;;;;;1.10;0.30;;;;;;;4.18;100.00;94591.94;1057356;28;20035;-72
2021/01/30 01:14:52;;;;;;;2.35;0.65;;;;;;;4.17;100.00;94579.84;1056634;28;20031;-71
2021/01/30 01:15:22;;;;;;;1.02;0.50;;;;;;;4.18;100.00;94597.16;1057777;28;20024;-71
2021/01/30 01:15:54;;;;;;;1.92;0.55;;;;;;;4.18;100.00;94591.94;1057494;28;20019;-72
2021/01/30 01:16:24;;;;;;;1.83;0.40;;;;;;;4.19;100.00;94590.88;1053304;28;20093;-72
2021/01/30 01:16:56;;;;;;;1.05;0.47;;;;;;;4.20;100.00;94592.47;1053042;28;20024;-71
2021/01/30 01:17:26;;;;;;;1.75;0.50;;;;;;;4.20;100.00;94593.25;1053307;28;20099;-71
2021/01/30 01:17:57;;;;;;;3.08;0.70;;;;;;;4.20;100.00;94593.25;1053093;28;20436;-71
2021/01/30 01:18:27;;;;;;;0.68;0.32;;;;;;;4.21;100.00;94588.81;1053540;28;20496;-71
2021/01/30 01:18:58;;;;;;;1.15;0.35;;;;;;;4.22;100.00;94600.88;1053494;28;20016;-71
2021/01/30 01:19:28;;;;;;;2.15;0.52;;;;;;;4.22;100.00;94587.75;1053602;28;20362;-71
2021/01/30 01:19:59;;;;;;;2.88;0.50;;;;;;;4.20;100.00;94587.22;1053378;28;20500;-72
2021/01/30 01:20:29;;;;;;;1.17;0.47;;;;;;;4.19;100.00;94596.13;1053529;28;20438;-72
2021/01/30 01:20:59;;;;;;;1.13;0.40;;;;;;;4.20;100.00;94600.34;1054763;28;20023;-73
2021/01/30 01:21:30;;;;;;;2.78;0.70;;;;;;;4.22;100.00;94600.88;1055562;28;20016;-73
2021/01/30 01:22:01;;;;;;;1.65;0.50;;;;;;;4.25;100.00;94595.13;1054680;28;20027;-74
2021/01/30 01:22:31;;;;;;;2.20;0.47;;;;;;;4.23;100.00;94602.47;1053649;28;20024;-74
2021/01/30 01:23:02;;;;;;;1.95;0.50;;;;;;;4.24;100.00;94598.78;1053156;28;20565;-75
2021/01/30 01:23:32;;;;;;;1.85;0.57;;;;;;;4.22;100.00;94604.28;1048861;28;20028;-74
2021/01/30 01:24:04;;;;;;;3.63;0.70;;;;;;;4.29;100.00;94607.53;1044684;28;20021;-73
2021/01/30 01:24:34;;;;;;;0.98;0.65;;;;;;;4.27;100.00;94608.81;1048955;28;20382;-74
2021/01/30 01:25:05;;;;;;;1.73;0.55;;;;;;;4.23;100.00;94597.22;1044930;28;20047;-73
2021/01/30 01:25:36;;;;;;;1.23;0.57;;;;;;;4.24;100.00;94609.28;1049057;28;20020;-73
2021/01/30 01:26:06;;;;;;;0.98;0.40;;;;;;;4.25;100.00;94603.00;1052541;28;20450;-75
2021/01/30 01:26:37;;;;;;;0.93;0.40;;;;;;;4.26;100.00;94602.78;1053176;28;20023;-73
2021/01/30 01:27:07;;;;;;;1.70;0.50;;;;;;;4.24;100.00;94606.66;1057018;28;20007;-71
2021/01/30 01:27:38;;;;;;;0.85;0.40;;;;;;;4.22;100.00;94604.28;1053533;28;20042;-71
2021/01/30 01:28:09;;;;;;;2.05;0.55;;;;;;;4.19;100.00;94602.16;1053419;28;20020;-71
2021/01/30 01:28:39;;;;;;;1.05;0.50;;;;;;;4.21;100.00;94610.56;1053371;28;20024;-72
2021/01/30 01:29:11;;;;;;;0.68;0.45;;;;;;;4.22;100.00;94614.00;1053437;28;20016;-72
2021/01/30 01:29:41;;;;;;;0.80;0.30;;;;;;;4.24;100.00;94611.91;1053204;28;20145;-72
2021/01/30 01:30:12;;;;;;;1.05;0.60;;;;;;;4.27;100.00;94606.19;1048873;28;20021;-71
2021/01/30 01:30:43;;;;;;;1.25;0.55;;;;;;;4.22;100.00;94606.91;1044476;28;20025;-72
2021/01/30 01:31:13;;;;;;;3.40;0.85;;;;;;;4.20;100.00;94610.81;1045054;28;20021;-72
2021/01/30 01:31:49;;;;;;;1.60;0.50;;;;;;;4.23;100.00;94607.69;1044383;28;20100;-72
2021/01/30 01:32:23;;;;;;;1.67;0.45;;;;;;;4.22;100.00;94616.59;1040821;28;20109;-72
2021/01/30 01:32:53;;;;;;;1.52;0.40;;;;;;;4.21;100.00;94617.66;1040323;28;20379;-73
2021/01/30 01:33:24;;;;;;;0.82;0.30;;;;;;;4.22;100.00;94609.53;1037604;28;20034;-72
2021/01/30 01:33:55;;;;;;;0.85;0.30;;;;;;;4.21;100.00;94615.81;1037077;28;20037;-72
2021/01/30 01:34:27;;;;;;;1.55;0.52;;;;;;;4.22;100.00;94624.47;1041284;28;20514;-72
2021/01/30 01:34:58;;;;;;;1.15;0.68;;;;;;;4.21;100.00;94621.06;1045294;28;20412;-72
2021/01/30 01:35:31;;;;;;;0.75;0.28;;;;;;;4.21;100.00;94615.03;1048949;28;20031;-72
2021/01/30 01:36:01;;;;;;;1.83;0.35;;;;;;;4.20;100.00;94619.47;1049166;28;20031;-70
2021/01/30 01:36:32;;;;;;;2.55;0.57;;;;;;;4.19;100.00;94617.91;1048889;28;20036;-70
2021/01/30 01:37:04;;;;;;;2.97;0.40;;;;;;;4.17;100.00;94611.31;1049123;28;20039;-69
